Time;durP1;ratioP1;P1;durP2;ratioP2;P2;SDS_P1;SDS_P2;PMS_P1;PMS_P2;Temp;Humidity;BMP_temperature;BMP_pressure;BME280_temperature;BME280_humidity;BME280_pressure;Samples;Min_cycle;Max_cycle;Signal;HPM_P1;HPM_P2
2023/06/14 00:01:35;;;;;;;8.32;2.83;;;19.40;57.30;;;;;;5055084;28;20046;-87
2023/06/14 00:04:01;;;;;;;8.65;2.85;;;19.40;57.50;;;;;;5071815;28;20032;-87
2023/06/14 00:06:29;;;;;;;9.98;2.80;;;19.30;57.50;;;;;;5071714;28;20082;-87
2023/06/14 00:08:54;;;;;;;12.73;2.80;;;19.20;57.80;;;;;;5071731;28;20058;-87
2023/06/14 00:11:20;;;;;;;10.23;2.50;;;19.20;57.90;;;;;;5071546;28;20040;-86
2023/06/14 00:13:46;;;;;;;8.00;2.50;;;19.10;57.90;;;;;;5054753;28;20041;-86
2023/06/14 00:16:12;;;;;;;8.75;2.70;;;19.10;58.10;;;;;;5071518;28;20117;-87
2023/06/14 00:18:38;;;;;;;8.80;2.70;;;19.00;58.30;;;;;;5071294;28;20040;-86
2023/06/14 00:21:05;;;;;;;8.65;2.60;;;19.00;58.50;;;;;;5071197;28;20144;-87
2023/06/14 00:23:31;;;;;;;8.32;3.08;;;19.00;58.70;;;;;;5071434;28;20506;-86
2023/06/14 00:25:56;;;;;;;8.65;2.65;;;18.90;58.80;;;;;;5071303;28;20078;-86
2023/06/14 00:28:22;;;;;;;9.80;2.70;;;18.80;59.00;;;;;;5071323;28;20041;-86
2023/06/14 00:30:48;;;;;;;8.45;2.80;;;18.80;59.10;;;;;;5054361;28;20048;-87
2023/06/14 00:33:13;;;;;;;6.80;2.30;;;18.70;59.40;;;;;;5071390;28;20040;-87
2023/06/14 00:35:39;;;;;;;7.97;2.80;;;18.70;59.50;;;;;;5071286;28;20043;-87
2023/06/14 00:38:05;;;;;;;8.63;2.83;;;18.60;59.70;;;;;;5071183;28;20089;-87
2023/06/14 00:40:31;;;;;;;7.88;2.80;;;18.60;59.90;;;;;;5070699;28;20044;-86
2023/06/14 00:42:56;;;;;;;7.55;2.65;;;18.50;60.00;;;;;;5071164;28;20070;-86
2023/06/14 00:45:22;;;;;;;8.05;2.67;;;18.50;60.20;;;;;;5054441;28;20051;-86
2023/06/14 00:47:51;;;;;;;8.90;2.45;;;18.40;60.40;;;;;;5070919;28;20033;-86
2023/06/14 00:50:16;;;;;;;8.50;2.85;;;18.40;60.50;;;;;;5070931;28;20036;-87
2023/06/14 00:52:42;;;;;;;7.97;2.45;;;18.30;60.60;;;;;;5071086;28;20041;-86
2023/06/14 00:55:08;;;;;;;7.38;2.17;;;18.30;60.70;;;;;;5070805;28;20042;-86
2023/06/14 00:57:37;;;;;;;9.25;2.50;;;18.20;60.60;;;;;;5070912;28;20036;-86
2023/06/14 01:00:04;;;;;;;6.85;2.55;;;18.20;61.20;;;;;;5070315;28;20131;-86
2023/06/14 01:02:30;;;;;;;6.65;2.50;;;18.20;61.40;;;;;;5070843;28;20105;-87
2023/06/14 01:04:56;;;;;;;9.98;2.67;;;18.10;61.60;;;;;;5054278;28;20457;-86
2023/06/14 01:08:11;;;;;;;7.53;2.40;;;18.10;61.80;;;;;;5070985;28;20406;-87
2023/06/14 01:11:04;;;;;;;8.57;2.58;;;18.10;61.90;;;;;;5070541;28;20398;-86
2023/06/14 01:13:35;;;;;;;6.35;1.90;;;18.00;62.30;;;;;;5070533;28;20037;-86
2023/06/14 01:16:01;;;;;;;8.25;2.53;;;17.90;62.10;;;;;;5070739;28;20044;-86
2023/06/14 01:18:29;;;;;;;8.65;2.90;;;17.80;62.70;;;;;;5070798;28;20441;-86
2023/06/14 01:20:56;;;;;;;8.90;2.60;;;17.90;62.90;;;;;;5070082;28;20113;-86
2023/06/14 01:23:23;;;;;;;10.50;2.97;;;17.90;63.10;;;;;;5053831;28;20040;-86
2023/06/14 01:25:52;;;;;;;8.18;2.83;;;17.80;63.40;;;;;;5070599;28;20451;-86
2023/06/14 01:28:20;;;;;;;8.50;3.03;;;17.80;63.40;;;;;;5070103;28;20036;-86
2023/06/14 01:30:51;;;;;;;11.85;2.83;;;17.70;63.60;;;;;;5069863;28;20037;-86
2023/06/14 01:33:22;;;;;;;9.65;2.60;;;17.70;63.90;;;;;;5070358;28;20521;-86
2023/06/14 01:35:52;;;;;;;9.95;2.58;;;17.70;63.90;;;;;;5070634;28;20101;-86
2023/06/14 01:38:22;;;;;;;6.30;2.65;;;17.70;64.10;;;;;;5070352;28;20498;-86
2023/06/14 01:40:48;;;;;;;9.23;2.60;;;17.70;65.00;;;;;;5069923;28;20394;-86
2023/06/14 01:43:15;;;;;;;9.18;2.50;;;17.60;64.60;;;;;;5070132;28;20127;-86
2023/06/14 01:45:43;;;;;;;5.22;1.98;;;17.60;64.50;;;;;;5070399;28;20037;-87
2023/06/14 01:48:09;;;;;;;7.03;2.05;;;17.50;64.40;;;;;;5070636;28;20068;-86
2023/06/14 01:50:35;;;;;;;9.15;2.97;;;17.40;64.60;;;;;;5069926;28;20517;-87
2023/06/14 01:53:00;;;;;;;8.45;3.28;;;17.40;65.10;;;;;;5070463;28;20044;-87
2023/06/14 01:55:26;;;;;;;7.28;2.92;;;17.40;65.30;;;;;;5053293;28;20497;-86
2023/06/14 01:57:53;;;;;;;10.65;3.10;;;17.40;65.50;;;;;;5070146;28;20416;-86
2023/06/14 02:00:19;;;;;;;7.20;2.03;;;17.40;65.70;;;;;;5069848;28;20099;-85
2023/06/14 02:02:45;;;;;;;9.85;2.72;;;17.30;65.40;;;;;;5070448;28;20037;-86
2023/06/14 02:05:11;;;;;;;9.23;2.60;;;17.30;66.20;;;;;;5070101;28;20078;-85
2023/06/14 02:07:37;;;;;;;8.13;2.72;;;17.30;66.40;;;;;;5070109;28;20047;-85
2023/06/14 02:10:05;;;;;;;9.15;2.58;;;17.20;66.70;;;;;;5069569;28;20037;-85
2023/06/14 02:12:31;;;;;;;7.55;2.70;;;17.20;66.70;;;;;;5069812;28;20081;-85
2023/06/14 02:14:57;;;;;;;8.02;2.90;;;17.20;67.00;;;;;;5069987;28;20127;-85
2023/06/14 02:17:23;;;;;;;9.02;2.35;;;17.10;67.10;;;;;;5069912;28;20045;-85
2023/06/14 02:19:50;;;;;;;8.23;2.30;;;17.00;67.00;;;;;;5069762;28;20071;-85
2023/06/14 02:22:16;;;;;;;9.60;3.20;;;16.90;67.00;;;;;;5070125;28;20048;-85
2023/06/14 02:24:42;;;;;;;9.73;3.33;;;17.00;67.90;;;;;;5069846;28;20660;-85
2023/06/14 02:27:11;;;;;;;7.47;2.97;;;17.00;68.10;;;;;;5069851;28;20123;-85
2023/06/14 02:29:37;;;;;;;5.97;2.30;;;17.00;68.10;;;;;;5069917;28;20037;-85
2023/06/14 02:32:04;;;;;;;8.90;2.65;;;16.90;67.80;;;;;;5069992;28;20036;-85
2023/06/14 02:34:30;;;;;;;9.07;2.80;;;16.90;68.40;;;;;;5069830;28;20090;-85
2023/06/14 02:36:55;;;;;;;8.93;2.60;;;17.00;68.60;;;;;;5069852;28;20048;-85
2023/06/14 02:39:23;;;;;;;8.60;2.15;;;17.00;68.60;;;;;;5052743;28;20044;-85
2023/06/14 02:41:50;;;;;;;8.18;2.78;;;16.90;68.20;;;;;;5074279;28;20040;-85
2023/06/14 02:44:18;;;;;;;8.13;2.70;;;16.90;68.90;;;;;;5073249;28;20043;-86
2023/06/14 02:46:45;;;;;;;10.82;3.22;;;16.90;68.90;;;;;;5073277;28;20040;-85
2023/06/14 02:49:11;;;;;;;7.70;3.10;;;16.90;69.20;;;;;;5056660;28;20497;-85
2023/06/14 02:51:37;;;;;;;8.23;2.92;;;16.90;69.40;;;;;;5056303;28;20036;-85
2023/06/14 02:54:03;;;;;;;7.90;2.70;;;16.90;69.30;;;;;;5073280;28;20041;-86
2023/06/14 02:56:29;;;;;;;11.10;2.90;;;16.90;69.70;;;;;;5072962;28;20402;-86
2023/06/14 02:58:54;;;;;;;6.72;2.70;;;16.90;69.80;;;;;;5073422;28;20032;-86
2023/06/14 03:01:21;;;;;;;9.20;3.40;;;16.90;69.80;;;;;;5055953;28;20513;-85
2023/06/14 03:03:47;;;;;;;7.38;2.95;;;16.90;69.70;;;;;;5072818;28;20041;-86
2023/06/14 03:06:13;;;;;;;10.25;2.30;;;16.90;70.00;;;;;;5072951;28;20089;-85
2023/06/14 03:08:41;;;;;;;8.68;3.13;;;16.80;69.60;;;;;;5072853;28;20513;-86
2023/06/14 03:11:07;;;;;;;8.30;2.83;;;16.80;71.00;;;;;;5072447;28;20047;-85
2023/06/14 03:13:37;;;;;;;8.07;2.85;;;16.80;70.60;;;;;;5073045;28;20048;-85
2023/06/14 03:16:02;;;;;;;7.97;2.60;;;16.80;70.60;;;;;;5072768;28;20094;-85
2023/06/14 03:18:30;;;;;;;6.75;2.20;;;16.80;70.90;;;;;;5073012;28;20040;-85
2023/06/14 03:20:57;;;;;;;7.97;2.33;;;16.70;70.50;;;;;;5072301;28;20643;-85
2023/06/14 03:23:25;;;;;;;8.90;3.03;;;16.70;70.60;;;;;;5055825;28;20506;-85
2023/06/14 03:25:51;;;;;;;7.70;2.95;;;16.70;71.50;;;;;;5072713;28;20119;-85
2023/06/14 03:28:17;;;;;;;10.40;3.03;;;16.70;71.40;;;;;;5072549;28;20171;-85
2023/06/14 03:30:42;;;;;;;6.07;2.33;;;16.70;71.50;;;;;;5072350;28;20036;-85
2023/06/14 03:33:08;;;;;;;7.85;3.00;;;16.70;71.20;;;;;;5055707;28;20040;-85
2023/06/14 03:35:34;;;;;;;9.52;2.97;;;16.70;71.80;;;;;;5055630;28;20106;-85
2023/06/14 03:38:00;;;;;;;10.65;3.40;;;16.70;72.10;;;;;;5072375;28;20445;-85
2023/06/14 03:40:26;;;;;;;8.25;3.00;;;16.70;72.20;;;;;;5071898;28;20140;-85
2023/06/14 03:42:55;;;;;;;8.38;3.30;;;16.70;72.10;;;;;;5072628;28;20530;-85
2023/06/14 03:45:21;;;;;;;7.75;2.55;;;16.70;72.30;;;;;;5072449;28;20421;-85
2023/06/14 03:47:47;;;;;;;9.68;3.30;;;16.60;71.90;;;;;;5072020;28;20032;-85
2023/06/14 03:50:13;;;;;;;8.35;3.20;;;16.60;72.70;;;;;;5070824;28;20045;-85
2023/06/14 03:52:38;;;;;;;8.68;2.90;;;16.60;72.60;;;;;;5069522;28;20567;-84
2023/06/14 03:55:04;;;;;;;13.85;3.30;;;16.70;72.70;;;;;;5070286;28;20032;-85
2023/06/14 03:57:30;;;;;;;10.80;3.22;;;16.70;72.80;;;;;;5053364;28;20066;-85
2023/06/14 03:59:56;;;;;;;9.25;3.35;;;16.70;72.90;;;;;;5069513;28;20124;-85
2023/06/14 04:02:22;;;;;;;8.88;3.05;;;16.70;72.80;;;;;;5069696;28;20032;-85
2023/06/14 04:04:48;;;;;;;6.90;3.08;;;16.70;73.00;;;;;;5070325;28;20170;-85
2023/06/14 04:07:15;;;;;;;6.38;2.25;;;16.70;73.30;;;;;;5071623;28;20502;-85
2023/06/14 04:09:41;;;;;;;8.07;2.30;;;16.70;73.00;;;;;;5071607;28;20075;-85
2023/06/14 04:12:11;;;;;;;7.10;2.75;;;16.60;73.00;;;;;;5055208;28;20178;-85
2023/06/14 04:14:37;;;;;;;7.32;2.80;;;16.70;73.40;;;;;;5071913;28;20048;-85
2023/06/14 04:17:03;;;;;;;9.35;3.38;;;16.70;73.40;;;;;;5071623;28;20084;-86
2023/06/14 04:19:29;;;;;;;8.57;3.42;;;16.80;73.60;;;;;;5054729;28;20095;-86
2023/06/14 04:21:55;;;;;;;8.88;3.25;;;16.70;73.70;;;;;;5071323;28;20509;-87
2023/06/14 04:24:21;;;;;;;9.95;2.40;;;16.70;73.60;;;;;;5071462;28;20036;-86
2023/06/14 04:26:47;;;;;;;9.48;3.30;;;16.70;73.30;;;;;;5071704;28;20102;-86
2023/06/14 04:29:16;;;;;;;7.50;2.95;;;16.80;74.00;;;;;;5071506;28;20083;-86
2023/06/14 04:31:42;;;;;;;8.13;2.88;;;16.80;74.20;;;;;;5071288;28;20041;-87
2023/06/14 04:34:08;;;;;;;7.10;3.08;;;16.70;73.80;;;;;;5071271;28;20032;-87
2023/06/14 04:36:36;;;;;;;9.52;3.17;;;16.70;74.60;;;;;;5071151;28;20044;-86
2023/06/14 04:39:03;;;;;;;10.73;3.30;;;16.80;74.70;;;;;;5071239;28;20041;-86
2023/06/14 04:41:32;;;;;;;7.97;3.10;;;16.80;74.60;;;;;;5054071;28;20041;-86
2023/06/14 04:44:01;;;;;;;8.60;3.33;;;16.90;74.70;;;;;;5054484;28;20054;-86
2023/06/14 04:46:31;;;;;;;7.13;3.00;;;16.90;74.70;;;;;;5071097;28;20040;-86
2023/06/14 04:49:02;;;;;;;6.50;2.30;;;16.90;74.70;;;;;;5071179;28;20103;-87
2023/06/14 04:51:29;;;;;;;8.75;3.50;;;16.90;74.30;;;;;;5070552;28;20119;-86
2023/06/14 04:53:58;;;;;;;8.18;3.20;;;16.90;74.90;;;;;;5054543;28;20032;-86
2023/06/14 04:56:29;;;;;;;7.78;2.95;;;17.00;75.00;;;;;;5070804;28;20040;-86
2023/06/14 04:58:56;;;;;;;10.20;3.03;;;17.00;75.50;;;;;;5070916;28;20045;-87
2023/06/14 05:01:23;;;;;;;8.50;3.20;;;17.00;74.90;;;;;;5053474;28;20055;-87
2023/06/14 05:03:49;;;;;;;8.13;3.42;;;17.00;75.60;;;;;;5070196;28;20090;-87
2023/06/14 05:06:17;;;;;;;7.70;3.08;;;17.10;75.70;;;;;;5070751;28;20119;-86
2023/06/14 05:08:42;;;;;;;9.02;2.78;;;17.20;75.50;;;;;;5070761;28;20056;-87
2023/06/14 05:11:08;;;;;;;7.63;2.88;;;17.20;74.90;;;;;;5070355;28;20032;-87
2023/06/14 05:13:34;;;;;;;8.85;3.63;;;17.20;75.30;;;;;;5070568;28;20067;-86
2023/06/14 05:16:00;;;;;;;9.57;3.95;;;17.20;76.00;;;;;;5070620;28;20047;-86
2023/06/14 05:18:26;;;;;;;9.55;3.80;;;17.30;76.00;;;;;;5053788;28;20052;-86
2023/06/14 05:20:52;;;;;;;8.80;2.90;;;17.40;75.80;;;;;;5070102;28;20093;-86
2023/06/14 05:23:17;;;;;;;10.70;3.60;;;17.40;75.30;;;;;;5070800;28;20036;-86
2023/06/14 05:25:44;;;;;;;8.52;3.63;;;17.40;75.80;;;;;;5053985;28;20482;-86
2023/06/14 05:28:09;;;;;;;9.35;3.20;;;17.50;75.80;;;;;;5070776;28;20047;-87
2023/06/14 05:30:37;;;;;;;7.82;3.28;;;17.60;75.60;;;;;;5053654;28;20037;-87
2023/06/14 05:33:03;;;;;;;7.05;2.25;;;17.60;75.50;;;;;;5071584;28;20044;-87
2023/06/14 05:35:29;;;;;;;7.63;3.03;;;17.70;75.00;;;;;;5053690;28;20036;-87
2023/06/14 05:37:55;;;;;;;7.75;3.30;;;17.70;75.00;;;;;;5053715;28;20143;-87
2023/06/14 05:40:20;;;;;;;9.02;3.30;;;17.70;75.20;;;;;;5070096;28;20036;-87
2023/06/14 05:42:46;;;;;;;9.13;3.20;;;17.90;75.00;;;;;;5070603;28;20557;-87
2023/06/14 05:45:12;;;;;;;7.03;3.33;;;17.90;74.60;;;;;;5071624;28;20656;-87
2023/06/14 05:47:37;;;;;;;6.90;3.42;;;18.00;74.40;;;;;;5070594;28;20372;-87
2023/06/14 05:50:03;;;;;;;7.57;3.10;;;18.10;74.20;;;;;;5069806;28;20559;-87
2023/06/14 05:52:29;;;;;;;8.23;3.00;;;18.10;74.10;;;;;;5070565;28;20123;-86
2023/06/14 05:54:55;;;;;;;7.85;3.17;;;18.20;73.80;;;;;;5070046;28;20037;-87
2023/06/14 05:57:21;;;;;;;10.20;3.38;;;18.30;73.60;;;;;;5053307;28;20044;-87
2023/06/14 05:59:46;;;;;;;8.50;3.17;;;18.30;73.30;;;;;;5069666;28;20111;-87
2023/06/14 06:02:12;;;;;;;10.77;3.03;;;18.40;72.90;;;;;;5070366;28;20028;-87
2023/06/14 06:04:37;;;;;;;8.00;2.95;;;18.50;73.00;;;;;;5071513;28;20477;-87
2023/06/14 06:07:03;;;;;;;7.07;2.58;;;18.50;73.00;;;;;;5053715;28;20132;-87
2023/06/14 06:09:29;;;;;;;7.60;2.60;;;18.60;72.90;;;;;;5069547;28;20044;-87
2023/06/14 06:11:55;;;;;;;7.53;3.00;;;18.70;72.50;;;;;;5070157;28;20056;-87
2023/06/14 06:14:20;;;;;;;6.82;3.05;;;18.70;72.10;;;;;;5070161;28;20639;-87
2023/06/14 06:16:46;;;;;;;7.53;2.95;;;18.80;71.60;;;;;;5073670;28;20043;-87
2023/06/14 06:19:12;;;;;;;7.85;2.97;;;18.80;71.40;;;;;;5057336;28;20036;-87
2023/06/14 06:21:37;;;;;;;7.00;2.90;;;19.00;71.20;;;;;;5073398;28;20490;-87
2023/06/14 06:24:05;;;;;;;7.85;2.78;;;19.00;71.00;;;;;;5073638;28;20047;-87
2023/06/14 06:26:31;;;;;;;9.27;2.78;;;19.10;70.90;;;;;;5073791;28;20079;-87
2023/06/14 06:28:57;;;;;;;11.02;2.75;;;19.20;70.60;;;;;;5057468;28;20033;-87
2023/06/14 06:31:23;;;;;;;9.05;2.90;;;19.30;70.80;;;;;;5073339;28;20040;-87
2023/06/14 06:33:50;;;;;;;7.60;2.70;;;19.40;70.50;;;;;;5073531;28;20040;-87
2023/06/14 06:36:15;;;;;;;7.38;2.80;;;19.40;70.00;;;;;;5073897;28;20048;-87
2023/06/14 06:38:41;;;;;;;9.57;3.13;;;19.50;69.50;;;;;;5057062;28;20044;-88
2023/06/14 06:41:07;;;;;;;9.07;2.65;;;19.60;68.90;;;;;;5073131;28;20402;-88
2023/06/14 06:43:32;;;;;;;7.13;2.88;;;19.60;68.70;;;;;;5073315;28;20405;-87
2023/06/14 06:45:58;;;;;;;6.75;2.80;;;19.70;68.70;;;;;;5073409;28;20123;-87
2023/06/14 06:48:23;;;;;;;8.38;3.28;;;19.80;68.30;;;;;;5056618;28;20044;-87
2023/06/14 06:50:49;;;;;;;8.43;2.70;;;19.80;67.80;;;;;;5072930;28;20071;-87
2023/06/14 06:53:15;;;;;;;6.78;2.60;;;19.90;67.60;;;;;;5072974;28;20048;-87
2023/06/14 06:55:40;;;;;;;9.10;2.50;;;19.90;67.60;;;;;;5073160;28;20040;-87
2023/06/14 06:58:06;;;;;;;8.02;2.70;;;20.00;67.50;;;;;;5073227;28;20063;-87
2023/06/14 07:00:32;;;;;;;6.45;2.65;;;20.10;67.50;;;;;;5055845;28;20055;-87
2023/06/14 07:02:57;;;;;;;11.25;2.90;;;20.20;67.20;;;;;;5056286;28;20032;-87
2023/06/14 07:05:23;;;;;;;8.32;2.63;;;20.20;67.00;;;;;;5073055;28;20040;-87
2023/06/14 07:07:49;;;;;;;8.60;2.42;;;20.30;66.70;;;;;;5056200;28;20037;-87
2023/06/14 07:10:14;;;;;;;7.03;2.40;;;20.40;66.90;;;;;;5072798;28;20041;-87
2023/06/14 07:12:40;;;;;;;6.82;2.55;;;20.40;66.90;;;;;;5072610;28;20044;-88
2023/06/14 07:15:08;;;;;;;7.88;2.72;;;20.50;66.40;;;;;;5055320;28;20037;-87
2023/06/14 07:17:34;;;;;;;9.02;2.83;;;20.60;66.00;;;;;;5056246;28;20470;-87
2023/06/14 07:20:05;;;;;;;6.68;2.55;;;20.70;65.50;;;;;;5072380;28;20506;-88
2023/06/14 07:22:30;;;;;;;7.22;2.35;;;20.70;64.90;;;;;;5055988;28;20478;-88
2023/06/14 07:24:56;;;;;;;10.35;2.70;;;20.70;64.60;;;;;;5072951;28;20044;-88
2023/06/14 07:27:22;;;;;;;8.32;2.45;;;20.80;65.10;;;;;;5071590;28;20497;-87
2023/06/14 07:29:47;;;;;;;8.52;2.20;;;20.80;65.00;;;;;;5055897;28;20041;-87
2023/06/14 07:32:13;;;;;;;6.60;2.25;;;20.90;65.00;;;;;;5055731;28;20517;-88
2023/06/14 07:34:38;;;;;;;10.15;2.70;;;21.00;64.90;;;;;;5055839;28;20090;-88
2023/06/14 07:37:04;;;;;;;8.25;2.60;;;21.00;64.50;;;;;;5055619;28;20032;-88
2023/06/14 07:39:29;;;;;;;9.57;3.00;;;21.10;64.00;;;;;;5055126;28;20486;-88
2023/06/14 07:41:55;;;;;;;9.23;2.60;;;21.20;63.80;;;;;;5072144;28;20048;-87
2023/06/14 07:44:20;;;;;;;6.72;2.28;;;21.20;63.20;;;;;;5055368;28;20405;-87
2023/06/14 07:46:49;;;;;;;7.20;2.50;;;21.30;63.10;;;;;;5071846;28;20029;-87
2023/06/14 07:49:14;;;;;;;6.75;2.17;;;21.30;62.70;;;;;;5072172;28;20469;-87
2023/06/14 07:51:40;;;;;;;5.78;2.25;;;21.40;61.90;;;;;;5071780;28;20130;-87
2023/06/14 07:54:07;;;;;;;7.28;2.35;;;21.40;61.80;;;;;;5055658;28;20042;-87
2023/06/14 07:56:33;;;;;;;6.43;2.13;;;21.50;61.40;;;;;;5072079;28;20613;-88
2023/06/14 07:58:58;;;;;;;7.57;2.03;;;21.50;61.00;;;;;;5072265;28;20052;-87
2023/06/14 08:01:25;;;;;;;7.05;2.22;;;21.50;61.20;;;;;;5071364;28;20051;-88
2023/06/14 08:03:51;;;;;;;6.97;2.30;;;21.60;60.60;;;;;;5072965;28;20083;-87
2023/06/14 08:06:16;;;;;;;10.48;2.22;;;21.70;60.50;;;;;;5071875;28;20072;-87
2023/06/14 08:08:42;;;;;;;9.10;2.58;;;21.70;60.10;;;;;;5071489;28;20490;-87
2023/06/14 08:11:07;;;;;;;9.95;2.30;;;21.70;59.60;;;;;;5071414;28;20502;-87
2023/06/14 08:13:33;;;;;;;6.47;2.22;;;21.80;60.10;;;;;;5071637;28;20044;-87
2023/06/14 08:16:01;;;;;;;6.07;2.20;;;21.90;60.00;;;;;;5071566;28;20037;-87
2023/06/14 08:18:26;;;;;;;6.30;2.50;;;21.90;59.80;;;;;;5054908;28;20041;-87
2023/06/14 08:20:54;;;;;;;5.25;2.10;;;22.00;60.20;;;;;;5070972;28;20047;-87
2023/06/14 08:23:21;;;;;;;8.75;2.50;;;22.10;59.60;;;;;;5071809;28;20076;-87
2023/06/14 08:25:46;;;;;;;7.03;2.10;;;22.10;59.90;;;;;;5055207;28;20040;-87
2023/06/14 08:28:12;;;;;;;8.13;2.70;;;22.20;59.50;;;;;;5071671;28;20501;-87
2023/06/14 08:30:37;;;;;;;7.72;2.70;;;22.30;59.00;;;;;;5070982;28;20036;-87
2023/06/14 08:33:03;;;;;;;6.47;2.20;;;22.30;59.50;;;;;;5072112;28;20110;-87
2023/06/14 08:35:29;;;;;;;5.05;1.90;;;22.40;58.80;;;;;;5054280;28;20402;-87
2023/06/14 08:37:55;;;;;;;6.82;2.10;;;22.50;59.10;;;;;;5071142;28;20097;-87
2023/06/14 08:40:23;;;;;;;6.20;1.95;;;22.60;58.90;;;;;;5054074;28;20044;-87
2023/06/14 08:42:52;;;;;;;8.70;3.05;;;22.60;58.20;;;;;;5071116;28;20037;-87
2023/06/14 08:45:20;;;;;;;4.70;1.90;;;22.70;58.30;;;;;;5071074;28;20040;-87
2023/06/14 08:47:51;;;;;;;6.07;1.80;;;22.70;58.30;;;;;;5070949;28;20119;-88
2023/06/14 08:50:21;;;;;;;7.85;2.00;;;22.80;58.00;;;;;;5054035;28;20042;-87
2023/06/14 08:52:52;;;;;;;6.57;1.70;;;22.80;57.20;;;;;;5054602;28;20090;-87
2023/06/14 08:55:19;;;;;;;5.32;1.80;;;22.90;56.50;;;;;;5071268;28;20045;-87
2023/06/14 08:57:47;;;;;;;7.20;1.88;;;22.90;55.60;;;;;;5070916;28;20083;-87
2023/06/14 09:00:14;;;;;;;5.70;1.63;;;22.90;55.50;;;;;;5053759;28;20041;-87
2023/06/14 09:02:43;;;;;;;6.65;1.90;;;23.00;55.40;;;;;;5054277;28;20043;-87
2023/06/14 09:05:13;;;;;;;5.90;1.80;;;23.00;55.50;;;;;;5071041;28;20098;-87
2023/06/14 09:07:43;;;;;;;7.13;1.60;;;23.10;55.00;;;;;;5070688;28;20076;-88
2023/06/14 09:10:10;;;;;;;6.20;1.88;;;23.10;54.60;;;;;;5070549;28;20494;-87
2023/06/14 09:12:36;;;;;;;6.68;2.58;;;23.20;54.60;;;;;;5070607;28;20116;-88
2023/06/14 09:15:08;;;;;;;7.18;1.90;;;23.20;54.40;;;;;;5070589;28;20037;-88
2023/06/14 09:17:37;;;;;;;5.93;2.33;;;23.20;54.50;;;;;;5054300;28;20513;-88
2023/06/14 09:20:06;;;;;;;6.90;2.20;;;23.30;55.10;;;;;;5070081;28;20048;-88
2023/06/14 09:22:36;;;;;;;6.15;1.90;;;23.30;55.30;;;;;;5054137;28;20044;-87
2023/06/14 09:25:01;;;;;;;7.20;1.83;;;23.40;54.30;;;;;;5070430;28;20033;-87
2023/06/14 09:27:29;;;;;;;7.40;1.60;;;23.40;54.50;;;;;;5053704;28;20035;-87
2023/06/14 09:29:55;;;;;;;6.53;1.67;;;23.50;54.00;;;;;;5053024;28;20052;-88
2023/06/14 09:32:24;;;;;;;5.53;1.60;;;23.50;53.30;;;;;;5053048;28;20036;-87
2023/06/14 09:34:50;;;;;;;5.82;1.85;;;23.50;53.40;;;;;;5070191;28;20052;-87
2023/06/14 09:37:32;;;;;;;7.50;1.77;;;23.50;52.50;;;;;;5053448;28;20044;-87
2023/06/14 09:39:59;;;;;;;6.78;1.92;;;23.50;51.60;;;;;;5069798;28;20033;-87
2023/06/14 09:42:25;;;;;;;8.88;3.30;;;23.50;52.00;;;;;;5069371;28;20166;-87
2023/06/14 09:44:53;;;;;;;3.97;1.70;;;23.60;52.70;;;;;;5069611;28;20064;-88
2023/06/14 09:47:19;;;;;;;8.63;2.72;;;23.60;51.20;;;;;;5050643;28;20040;-87
2023/06/14 09:49:45;;;;;;;7.25;2.13;;;23.70;51.40;;;;;;5069700;28;20497;-87
2023/06/14 09:52:17;;;;;;;6.15;2.30;;;23.80;51.60;;;;;;5056965;28;20036;-87
2023/06/14 09:54:46;;;;;;;6.72;1.98;;;23.80;51.30;;;;;;5055990;28;20040;-87
2023/06/14 09:57:13;;;;;;;5.18;1.70;;;23.80;51.20;;;;;;5056824;28;20040;-87
2023/06/14 09:59:45;;;;;;;6.72;1.75;;;23.90;51.20;;;;;;5073833;28;20076;-87
2023/06/14 10:02:28;;;;;;;10.75;1.83;;;23.90;51.50;;;;;;5056797;28;20028;-87
2023/06/14 10:05:11;;;;;;;6.13;1.70;;;24.00;51.60;;;;;;5089858;28;20075;-87
2023/06/14 10:07:55;;;;;;;7.45;1.83;;;24.10;50.40;;;;;;5071640;28;20470;-87
2023/06/14 10:10:21;;;;;;;4.80;1.80;;;24.10;49.80;;;;;;5073348;28;20041;-88
2023/06/14 10:12:48;;;;;;;8.85;1.80;;;24.00;49.60;;;;;;5056688;28;20067;-88
2023/06/14 10:15:32;;;;;;;5.65;1.75;;;24.00;49.70;;;;;;5074121;28;20098;-87
2023/06/14 10:18:25;;;;;;;6.55;1.63;;;24.10;49.90;;;;;;5073617;28;20048;-88
2023/06/14 10:21:00;;;;;;;4.75;1.63;;;24.20;50.30;;;;;;5056612;28;20418;-87
2023/06/14 10:23:28;;;;;;;6.32;1.85;;;24.20;50.70;;;;;;5073630;28;20043;-87
2023/06/14 10:25:57;;;;;;;5.32;1.58;;;24.30;50.50;;;;;;5074176;28;20502;-87
2023/06/14 10:28:24;;;;;;;5.57;1.83;;;24.40;49.60;;;;;;5073341;28;20497;-87
2023/06/14 10:31:08;;;;;;;5.07;1.83;;;24.40;49.50;;;;;;5073212;28;20048;-88
2023/06/14 10:33:53;;;;;;;8.88;1.88;;;24.40;49.40;;;;;;5073881;28;20102;-87
2023/06/14 10:36:21;;;;;;;8.75;2.03;;;24.50;49.30;;;;;;5056601;28;20131;-87
2023/06/14 10:39:16;;;;;;;7.38;1.98;;;24.50;49.30;;;;;;5073744;28;20151;-87
2023/06/14 10:41:52;;;;;;;6.20;1.80;;;24.60;49.40;;;;;;5073113;28;20102;-87
2023/06/14 10:44:20;;;;;;;7.32;1.92;;;24.60;49.30;;;;;;5056711;28;20036;-87
2023/06/14 10:46:46;;;;;;;6.60;2.20;;;24.70;49.80;;;;;;5073348;28;20044;-87
2023/06/14 10:49:12;;;;;;;8.75;3.17;;;24.70;49.60;;;;;;5072597;28;20036;-87
2023/06/14 10:51:48;;;;;;;7.72;3.03;;;24.80;49.80;;;;;;5072442;28;20135;-87
2023/06/14 10:54:13;;;;;;;6.38;2.17;;;24.80;49.00;;;;;;5052625;28;20041;-87
2023/06/14 10:56:48;;;;;;;5.43;1.70;;;24.90;48.50;;;;;;5072722;28;20043;-87
2023/06/14 10:59:14;;;;;;;6.22;1.85;;;24.90;49.20;;;;;;5054387;28;20152;-87
2023/06/14 11:01:59;;;;;;;6.18;1.95;;;25.00;48.90;;;;;;5053154;28;20044;-87
2023/06/14 11:04:46;;;;;;;9.25;1.95;;;25.00;48.70;;;;;;5072298;28;20382;-86
2023/06/14 11:07:24;;;;;;;7.82;2.38;;;25.00;48.90;;;;;;5072901;28;20036;-87
2023/06/14 11:10:22;;;;;;;5.70;1.77;;;25.10;48.60;;;;;;5069933;28;20566;-87
2023/06/14 11:12:48;;;;;;;6.65;1.95;;;25.20;48.90;;;;;;5057512;28;20043;-87
2023/06/14 11:15:14;;;;;;;7.45;1.80;;;25.20;48.30;;;;;;5072454;28;20033;-87
2023/06/14 11:17:49;;;;;;;7.35;1.70;;;25.20;48.20;;;;;;5072679;28;20032;-87
2023/06/14 11:20:18;;;;;;;5.18;1.70;;;25.30;48.90;;;;;;5053425;28;20036;-87
2023/06/14 11:22:43;;;;;;;5.65;1.83;;;25.40;48.70;;;;;;5055240;28;20064;-87
2023/06/14 11:25:10;;;;;;;5.60;1.85;;;25.40;48.60;;;;;;5053354;28;20116;-87
2023/06/14 11:27:35;;;;;;;11.77;3.17;;;25.50;48.30;;;;;;5055912;28;20029;-87
2023/06/14 11:30:02;;;;;;;5.53;1.77;;;25.50;48.70;;;;;;5071972;28;20383;-87
2023/06/14 11:32:27;;;;;;;7.45;1.90;;;25.50;48.50;;;;;;5072352;28;20037;-87
2023/06/14 11:34:53;;;;;;;7.70;1.92;;;25.60;48.70;;;;;;5072453;28;20472;-88
2023/06/14 11:37:19;;;;;;;4.53;1.67;;;25.60;49.40;;;;;;5055825;28;20131;-87
2023/06/14 11:39:45;;;;;;;6.53;1.80;;;25.70;49.20;;;;;;5055708;28;20127;-87
2023/06/14 11:42:17;;;;;;;7.85;2.10;;;25.80;48.90;;;;;;5072701;28;20466;-88
2023/06/14 11:44:46;;;;;;;6.20;1.50;;;25.80;48.90;;;;;;5055765;28;20040;-87
2023/06/14 11:47:12;;;;;;;7.45;2.03;;;25.90;49.00;;;;;;5072340;28;20043;-87
2023/06/14 11:49:38;;;;;;;7.22;1.95;;;25.90;49.30;;;;;;5055113;28;20410;-87
2023/06/14 11:52:04;;;;;;;7.50;2.20;;;25.90;49.20;;;;;;5055752;28;20083;-87
2023/06/14 11:54:31;;;;;;;5.55;1.85;;;26.00;49.50;;;;;;5072210;28;20040;-87
2023/06/14 11:56:57;;;;;;;6.40;2.13;;;26.10;50.00;;;;;;5072031;28;20444;-87
2023/06/14 11:59:24;;;;;;;8.93;1.73;;;26.10;49.00;;;;;;5072259;28;20042;-87
2023/06/14 12:01:50;;;;;;;4.72;1.70;;;26.30;49.70;;;;;;5055034;28;20048;-87
2023/06/14 12:04:27;;;;;;;7.60;2.00;;;26.30;49.30;;;;;;5055236;28;20032;-87
2023/06/14 12:06:55;;;;;;;4.88;1.63;;;26.40;49.00;;;;;;5072210;28;20499;-88
2023/06/14 12:09:23;;;;;;;7.60;2.00;;;26.40;49.00;;;;;;5071819;28;20048;-88
2023/06/14 12:11:50;;;;;;;7.68;1.90;;;26.50;48.90;;;;;;5054617;28;20045;-87
2023/06/14 12:14:16;;;;;;;6.65;1.80;;;26.60;48.20;;;;;;5071438;28;20040;-87
2023/06/14 12:16:42;;;;;;;6.80;2.00;;;26.60;48.50;;;;;;5071566;28;20045;-87
2023/06/14 12:19:11;;;;;;;5.88;1.90;;;26.70;49.30;;;;;;5055211;28;20055;-88
2023/06/14 12:21:40;;;;;;;3.92;1.65;;;26.80;48.80;;;;;;5071205;28;20044;-87
2023/06/14 12:24:06;;;;;;;5.07;1.80;;;26.80;48.20;;;;;;5071575;28;20037;-88
2023/06/14 12:26:33;;;;;;;7.35;1.83;;;26.80;48.20;;;;;;5071680;28;20033;-88
2023/06/14 12:28:59;;;;;;;5.63;2.10;;;26.90;48.90;;;;;;5054865;28;20040;-88
2023/06/14 12:31:25;;;;;;;5.13;1.73;;;26.90;49.30;;;;;;5071006;28;20425;-88
2023/06/14 12:33:51;;;;;;;5.38;1.77;;;26.90;48.80;;;;;;5054678;28;20524;-88
2023/06/14 12:36:17;;;;;;;7.05;1.95;;;27.00;48.70;;;;;;5054695;28;20123;-88
2023/06/14 12:38:42;;;;;;;7.20;2.08;;;27.00;48.60;;;;;;5071302;28;20059;-88
2023/06/14 12:41:08;;;;;;;6.45;1.90;;;27.10;48.40;;;;;;5070859;28;20040;-87
2023/06/14 12:43:34;;;;;;;5.25;1.67;;;27.10;48.10;;;;;;5054566;28;20072;-87
2023/06/14 12:46:00;;;;;;;8.20;1.88;;;27.20;48.10;;;;;;5070943;28;20043;-87
2023/06/14 12:48:31;;;;;;;5.45;1.90;;;27.20;49.10;;;;;;5070920;28;20044;-87